sensor_id;sensor_type;location;lat;lon;timestamp;P1;durP1;ratioP1;P2;durP2;ratioP2
8574;SDS011;4325;42.520;27.448;2023-08-06T00:01:00;7.70;;;5.00;;
8574;SDS011;4325;42.520;27.448;2023-08-06T00:03:28;8.33;;;4.93;;
8574;SDS011;4325;42.520;27.448;2023-08-06T00:05:54;8.47;;;5.00;;
8574;SDS011;4325;42.520;27.448;2023-08-06T00:08:21;5.67;;;4.53;;
8574;SDS011;4325;42.520;27.448;2023-08-06T00:10:50;6.20;;;4.87;;
8574;SDS011;4325;42.520;27.448;2023-08-06T00:13:17;9.30;;;5.17;;
8574;SDS011;4325;42.520;27.448;2023-08-06T00:15:43;9.20;;;4.90;;
8574;SDS011;4325;42.520;27.448;2023-08-06T00:18:10;5.83;;;4.87;;
8574;SDS011;4325;42.520;27.448;2023-08-06T00:20:38;6.17;;;4.50;;
8574;SDS011;4325;42.520;27.448;2023-08-06T00:23:06;6.43;;;5.03;;
8574;SDS011;4325;42.520;27.448;2023-08-06T00:25:34;6.17;;;4.63;;
8574;SDS011;4325;42.520;27.448;2023-08-06T00:28:02;9.60;;;4.97;;
8574;SDS011;4325;42.520;27.448;2023-08-06T00:30:29;5.53;;;5.00;;
8574;SDS011;4325;42.520;27.448;2023-08-06T00:32:57;8.23;;;5.40;;
8574;SDS011;4325;42.520;27.448;2023-08-06T00:35:24;5.83;;;4.70;;
8574;SDS011;4325;42.520;27.448;2023-08-06T00:37:51;5.50;;;4.90;;
8574;SDS011;4325;42.520;27.448;2023-08-06T00:40:19;8.03;;;4.80;;
8574;SDS011;4325;42.520;27.448;2023-08-06T00:42:47;4.83;;;4.33;;
8574;SDS011;4325;42.520;27.448;2023-08-06T00:45:15;6.30;;;5.23;;
8574;SDS011;4325;42.520;27.448;2023-08-06T00:47:43;9.77;;;5.70;;
8574;SDS011;4325;42.520;27.448;2023-08-06T00:50:11;8.33;;;6.23;;
8574;SDS011;4325;42.520;27.448;2023-08-06T00:52:38;6.27;;;5.10;;
8574;SDS011;4325;42.520;27.448;2023-08-06T00:55:05;7.10;;;5.43;;
8574;SDS011;4325;42.520;27.448;2023-08-06T00:57:33;9.70;;;5.87;;
8574;SDS011;4325;42.520;27.448;2023-08-06T01:00:00;8.37;;;5.43;;
8574;SDS011;4325;42.520;27.448;2023-08-06T01:02:30;7.83;;;5.50;;
8574;SDS011;4325;42.520;27.448;2023-08-06T01:04:57;5.47;;;4.60;;
8574;SDS011;4325;42.520;27.448;2023-08-06T01:07:28;5.67;;;5.07;;
8574;SDS011;4325;42.520;27.448;2023-08-06T01:10:10;7.87;;;5.10;;
8574;SDS011;4325;42.520;27.448;2023-08-06T01:12:51;9.63;;;5.97;;
8574;SDS011;4325;42.520;27.448;2023-08-06T01:15:30;8.23;;;5.47;;
8574;SDS011;4325;42.520;27.448;2023-08-06T01:18:05;11.50;;;5.90;;
8574;SDS011;4325;42.520;27.448;2023-08-06T01:20:34;5.83;;;5.10;;
8574;SDS011;4325;42.520;27.448;2023-08-06T01:23:01;9.30;;;5.53;;
8574;SDS011;4325;42.520;27.448;2023-08-06T01:25:29;6.67;;;5.47;;
8574;SDS011;4325;42.520;27.448;2023-08-06T01:28:01;5.83;;;5.23;;
8574;SDS011;4325;42.520;27.448;2023-08-06T01:30:34;6.77;;;5.33;;
8574;SDS011;4325;42.520;27.448;2023-08-06T01:33:08;6.53;;;5.77;;
8574;SDS011;4325;42.520;27.448;2023-08-06T01:35:41;7.37;;;6.20;;
8574;SDS011;4325;42.520;27.448;2023-08-06T01:38:08;9.73;;;6.40;;
8574;SDS011;4325;42.520;27.448;2023-08-06T01:40:36;8.90;;;6.00;;
8574;SDS011;4325;42.520;27.448;2023-08-06T01:43:02;8.83;;;6.03;;
8574;SDS011;4325;42.520;27.448;2023-08-06T01:45:29;7.23;;;5.43;;
8574;SDS011;4325;42.520;27.448;2023-08-06T01:47:56;8.60;;;6.70;;
8574;SDS011;4325;42.520;27.448;2023-08-06T01:50:23;8.00;;;6.33;;
8574;SDS011;4325;42.520;27.448;2023-08-06T01:52:52;7.80;;;5.33;;
8574;SDS011;4325;42.520;27.448;2023-08-06T01:55:18;9.83;;;6.47;;
8574;SDS011;4325;42.520;27.448;2023-08-06T01:57:45;11.43;;;6.33;;
8574;SDS011;4325;42.520;27.448;2023-08-06T02:00:12;9.83;;;6.20;;
8574;SDS011;4325;42.520;27.448;2023-08-06T02:02:39;11.13;;;6.33;;
8574;SDS011;4325;42.520;27.448;2023-08-06T02:05:07;8.47;;;6.00;;
8574;SDS011;4325;42.520;27.448;2023-08-06T02:07:33;6.40;;;5.43;;
8574;SDS011;4325;42.520;27.448;2023-08-06T02:10:02;7.73;;;5.87;;
8574;SDS011;4325;42.520;27.448;2023-08-06T02:12:29;9.27;;;6.27;;
8574;SDS011;4325;42.520;27.448;2023-08-06T02:14:55;13.37;;;6.70;;
8574;SDS011;4325;42.520;27.448;2023-08-06T02:17:22;15.93;;;7.20;;
8574;SDS011;4325;42.520;27.448;2023-08-06T02:19:49;7.17;;;6.07;;
8574;SDS011;4325;42.520;27.448;2023-08-06T02:22:16;9.37;;;6.43;;
8574;SDS011;4325;42.520;27.448;2023-08-06T02:24:43;9.00;;;5.63;;
8574;SDS011;4325;42.520;27.448;2023-08-06T02:27:11;8.53;;;6.40;;
8574;SDS011;4325;42.520;27.448;2023-08-06T02:29:39;12.13;;;7.10;;
8574;SDS011;4325;42.520;27.448;2023-08-06T02:32:07;6.73;;;5.77;;
8574;SDS011;4325;42.520;27.448;2023-08-06T02:34:34;10.17;;;6.53;;
8574;SDS011;4325;42.520;27.448;2023-08-06T02:37:01;8.77;;;6.67;;
8574;SDS011;4325;42.520;27.448;2023-08-06T02:39:27;6.97;;;5.77;;
8574;SDS011;4325;42.520;27.448;2023-08-06T02:41:54;9.87;;;6.40;;
8574;SDS011;4325;42.520;27.448;2023-08-06T02:44:23;10.40;;;6.83;;
8574;SDS011;4325;42.520;27.448;2023-08-06T02:46:53;8.57;;;6.63;;
8574;SDS011;4325;42.520;27.448;2023-08-06T02:49:20;11.03;;;6.57;;
8574;SDS011;4325;42.520;27.448;2023-08-06T02:51:46;9.67;;;6.17;;
8574;SDS011;4325;42.520;27.448;2023-08-06T02:54:13;7.63;;;5.97;;
8574;SDS011;4325;42.520;27.448;2023-08-06T02:56:42;11.23;;;7.70;;
8574;SDS011;4325;42.520;27.448;2023-08-06T02:59:10;9.47;;;7.33;;
8574;SDS011;4325;42.520;27.448;2023-08-06T03:01:38;12.43;;;8.10;;
8574;SDS011;4325;42.520;27.448;2023-08-06T03:04:05;9.87;;;7.43;;
8574;SDS011;4325;42.520;27.448;2023-08-06T03:06:33;9.17;;;7.17;;
8574;SDS011;4325;42.520;27.448;2023-08-06T03:08:59;13.47;;;8.83;;
8574;SDS011;4325;42.520;27.448;2023-08-06T03:11:26;11.80;;;7.57;;
8574;SDS011;4325;42.520;27.448;2023-08-06T03:13:53;13.63;;;7.80;;
8574;SDS011;4325;42.520;27.448;2023-08-06T03:16:20;8.40;;;7.50;;
8574;SDS011;4325;42.520;27.448;2023-08-06T03:18:48;16.40;;;8.40;;
8574;SDS011;4325;42.520;27.448;2023-08-06T03:21:15;11.93;;;7.87;;
8574;SDS011;4325;42.520;27.448;2023-08-06T03:23:42;10.17;;;6.50;;
8574;SDS011;4325;42.520;27.448;2023-08-06T03:26:09;9.60;;;7.00;;
8574;SDS011;4325;42.520;27.448;2023-08-06T03:28:36;8.80;;;7.67;;
8574;SDS011;4325;42.520;27.448;2023-08-06T03:31:03;13.83;;;7.93;;
8574;SDS011;4325;42.520;27.448;2023-08-06T03:33:30;12.40;;;8.70;;
8574;SDS011;4325;42.520;27.448;2023-08-06T03:35:59;11.20;;;8.27;;
8574;SDS011;4325;42.520;27.448;2023-08-06T03:38:25;9.93;;;7.97;;
8574;SDS011;4325;42.520;27.448;2023-08-06T03:40:53;14.77;;;9.73;;
8574;SDS011;4325;42.520;27.448;2023-08-06T03:43:20;13.03;;;9.00;;
8574;SDS011;4325;42.520;27.448;2023-08-06T03:45:47;11.10;;;8.50;;
8574;SDS011;4325;42.520;27.448;2023-08-06T03:48:14;9.17;;;7.23;;
8574;SDS011;4325;42.520;27.448;2023-08-06T03:50:41;13.83;;;8.90;;
8574;SDS011;4325;42.520;27.448;2023-08-06T03:53:09;9.70;;;7.47;;
8574;SDS011;4325;42.520;27.448;2023-08-06T03:55:36;12.77;;;7.40;;
8574;SDS011;4325;42.520;27.448;2023-08-06T03:58:03;12.13;;;7.97;;
8574;SDS011;4325;42.520;27.448;2023-08-06T04:00:29;13.53;;;9.03;;
8574;SDS011;4325;42.520;27.448;2023-08-06T04:02:56;13.63;;;8.37;;
8574;SDS011;4325;42.520;27.448;2023-08-06T04:05:23;12.40;;;8.00;;
8574;SDS011;4325;42.520;27.448;2023-08-06T04:07:50;14.00;;;8.53;;
8574;SDS011;4325;42.520;27.448;2023-08-06T04:10:19;11.93;;;7.70;;
8574;SDS011;4325;42.520;27.448;2023-08-06T04:12:45;9.03;;;7.20;;
8574;SDS011;4325;42.520;27.448;2023-08-06T04:15:13;8.97;;;6.87;;
8574;SDS011;4325;42.520;27.448;2023-08-06T04:17:40;11.00;;;7.50;;
8574;SDS011;4325;42.520;27.448;2023-08-06T04:20:07;10.47;;;7.60;;
8574;SDS011;4325;42.520;27.448;2023-08-06T04:22:34;8.53;;;6.47;;
8574;SDS011;4325;42.520;27.448;2023-08-06T04:25:01;8.67;;;6.83;;
8574;SDS011;4325;42.520;27.448;2023-08-06T04:27:30;8.80;;;6.37;;
8574;SDS011;4325;42.520;27.448;2023-08-06T04:29:57;10.23;;;6.40;;
8574;SDS011;4325;42.520;27.448;2023-08-06T04:32:24;8.20;;;6.03;;
8574;SDS011;4325;42.520;27.448;2023-08-06T04:34:51;6.03;;;5.40;;
8574;SDS011;4325;42.520;27.448;2023-08-06T04:37:18;7.33;;;6.10;;
8574;SDS011;4325;42.520;27.448;2023-08-06T04:39:45;9.00;;;5.80;;
8574;SDS011;4325;42.520;27.448;2023-08-06T04:42:12;7.50;;;5.87;;
8574;SDS011;4325;42.520;27.448;2023-08-06T04:44:40;9.23;;;6.17;;
8574;SDS011;4325;42.520;27.448;2023-08-06T04:47:07;13.47;;;5.90;;
8574;SDS011;4325;42.520;27.448;2023-08-06T04:49:34;10.37;;;6.73;;
8574;SDS011;4325;42.520;27.448;2023-08-06T04:52:01;8.77;;;6.50;;
8574;SDS011;4325;42.520;27.448;2023-08-06T04:54:28;5.83;;;5.23;;
8574;SDS011;4325;42.520;27.448;2023-08-06T04:56:54;11.13;;;6.03;;
8574;SDS011;4325;42.520;27.448;2023-08-06T04:59:21;5.87;;;5.17;;
8574;SDS011;4325;42.520;27.448;2023-08-06T05:01:50;5.33;;;4.77;;
8574;SDS011;4325;42.520;27.448;2023-08-06T05:04:17;5.70;;;5.07;;
8574;SDS011;4325;42.520;27.448;2023-08-06T05:06:44;8.10;;;4.70;;
8574;SDS011;4325;42.520;27.448;2023-08-06T05:09:11;8.87;;;4.57;;
8574;SDS011;4325;42.520;27.448;2023-08-06T05:11:37;6.87;;;4.77;;
8574;SDS011;4325;42.520;27.448;2023-08-06T05:14:04;6.60;;;5.10;;
8574;SDS011;4325;42.520;27.448;2023-08-06T05:16:31;5.30;;;4.23;;
8574;SDS011;4325;42.520;27.448;2023-08-06T05:19:00;5.47;;;4.43;;
8574;SDS011;4325;42.520;27.448;2023-08-06T05:21:26;4.50;;;3.93;;
8574;SDS011;4325;42.520;27.448;2023-08-06T05:23:53;4.70;;;4.20;;
8574;SDS011;4325;42.520;27.448;2023-08-06T05:26:20;4.97;;;4.47;;
8574;SDS011;4325;42.520;27.448;2023-08-06T05:28:47;7.43;;;4.03;;
8574;SDS011;4325;42.520;27.448;2023-08-06T05:31:14;6.30;;;3.83;;
8574;SDS011;4325;42.520;27.448;2023-08-06T05:33:41;5.40;;;4.63;;
8574;SDS011;4325;42.520;27.448;2023-08-06T05:36:09;5.47;;;3.87;;
8574;SDS011;4325;42.520;27.448;2023-08-06T05:38:36;8.93;;;4.13;;
8574;SDS011;4325;42.520;27.448;2023-08-06T05:41:03;4.93;;;4.23;;
8574;SDS011;4325;42.520;27.448;2023-08-06T05:43:30;5.33;;;4.30;;
8574;SDS011;4325;42.520;27.448;2023-08-06T05:45:57;3.83;;;3.53;;
8574;SDS011;4325;42.520;27.448;2023-08-06T05:48:24;6.23;;;3.80;;
8574;SDS011;4325;42.520;27.448;2023-08-06T05:50:53;4.57;;;4.10;;
8574;SDS011;4325;42.520;27.448;2023-08-06T05:53:21;5.73;;;3.97;;
8574;SDS011;4325;42.520;27.448;2023-08-06T05:55:48;3.57;;;3.27;;
8574;SDS011;4325;42.520;27.448;2023-08-06T05:58:15;4.47;;;3.93;;
8574;SDS011;4325;42.520;27.448;2023-08-06T06:00:42;3.83;;;3.53;;
8574;SDS011;4325;42.520;27.448;2023-08-06T06:03:09;3.47;;;3.17;;
8574;SDS011;4325;42.520;27.448;2023-08-06T06:05:37;4.33;;;3.37;;
8574;SDS011;4325;42.520;27.448;2023-08-06T06:08:05;4.03;;;3.53;;
8574;SDS011;4325;42.520;27.448;2023-08-06T06:10:33;3.77;;;3.43;;
8574;SDS011;4325;42.520;27.448;2023-08-06T06:13:01;5.17;;;3.97;;
8574;SDS011;4325;42.520;27.448;2023-08-06T06:15:28;5.20;;;3.43;;
8574;SDS011;4325;42.520;27.448;2023-08-06T06:17:55;4.60;;;4.03;;
8574;SDS011;4325;42.520;27.448;2023-08-06T06:20:22;5.83;;;3.70;;
8574;SDS011;4325;42.520;27.448;2023-08-06T06:22:49;6.53;;;3.43;;
8574;SDS011;4325;42.520;27.448;2023-08-06T06:25:16;6.13;;;3.23;;
8574;SDS011;4325;42.520;27.448;2023-08-06T06:27:44;3.70;;;3.17;;
8574;SDS011;4325;42.520;27.448;2023-08-06T06:30:11;3.70;;;3.40;;
8574;SDS011;4325;42.520;27.448;2023-08-06T06:32:38;4.57;;;3.23;;
8574;SDS011;4325;42.520;27.448;2023-08-06T06:35:06;4.50;;;3.63;;
8574;SDS011;4325;42.520;27.448;2023-08-06T06:37:33;7.10;;;3.17;;
8574;SDS011;4325;42.520;27.448;2023-08-06T06:40:00;3.67;;;3.37;;
8574;SDS011;4325;42.520;27.448;2023-08-06T06:42:27;4.17;;;3.60;;
8574;SDS011;4325;42.520;27.448;2023-08-06T06:44:55;7.53;;;3.80;;
8574;SDS011;4325;42.520;27.448;2023-08-06T06:47:22;5.57;;;3.70;;
8574;SDS011;4325;42.520;27.448;2023-08-06T06:49:49;7.20;;;3.67;;
8574;SDS011;4325;42.520;27.448;2023-08-06T06:52:16;7.77;;;3.93;;
8574;SDS011;4325;42.520;27.448;2023-08-06T06:54:43;4.00;;;3.60;;
8574;SDS011;4325;42.520;27.448;2023-08-06T06:57:10;7.00;;;3.50;;
8574;SDS011;4325;42.520;27.448;2023-08-06T06:59:37;8.00;;;3.43;;
8574;SDS011;4325;42.520;27.448;2023-08-06T07:02:06;6.50;;;3.80;;
8574;SDS011;4325;42.520;27.448;2023-08-06T07:04:33;3.80;;;3.40;;
8574;SDS011;4325;42.520;27.448;2023-08-06T07:07:00;5.30;;;4.80;;
8574;SDS011;4325;42.520;27.448;2023-08-06T07:09:27;5.70;;;4.27;;
8574;SDS011;4325;42.520;27.448;2023-08-06T07:11:54;4.03;;;3.23;;
8574;SDS011;4325;42.520;27.448;2023-08-06T07:14:21;3.77;;;3.37;;
8574;SDS011;4325;42.520;27.448;2023-08-06T07:16:48;4.93;;;3.83;;
8574;SDS011;4325;42.520;27.448;2023-08-06T07:19:16;5.33;;;3.03;;
8574;SDS011;4325;42.520;27.448;2023-08-06T07:21:43;5.20;;;3.40;;
8574;SDS011;4325;42.520;27.448;2023-08-06T07:24:10;5.47;;;3.70;;
8574;SDS011;4325;42.520;27.448;2023-08-06T07:26:37;4.13;;;3.73;;
8574;SDS011;4325;42.520;27.448;2023-08-06T07:29:04;8.30;;;3.70;;
8574;SDS011;4325;42.520;27.448;2023-08-06T07:31:31;3.47;;;3.17;;
8574;SDS011;4325;42.520;27.448;2023-08-06T07:33:58;3.70;;;3.40;;
8574;SDS011;4325;42.520;27.448;2023-08-06T07:36:26;6.17;;;3.60;;
8574;SDS011;4325;42.520;27.448;2023-08-06T07:38:53;4.33;;;3.30;;
8574;SDS011;4325;42.520;27.448;2023-08-06T07:41:22;3.90;;;3.30;;
8574;SDS011;4325;42.520;27.448;2023-08-06T07:43:48;3.47;;;3.17;;
8574;SDS011;4325;42.520;27.448;2023-08-06T07:46:15;3.47;;;3.17;;
8574;SDS011;4325;42.520;27.448;2023-08-06T07:48:42;4.10;;;3.70;;
8574;SDS011;4325;42.520;27.448;2023-08-06T07:51:09;3.70;;;3.40;;
8574;SDS011;4325;42.520;27.448;2023-08-06T07:53:38;4.50;;;3.00;;
8574;SDS011;4325;42.520;27.448;2023-08-06T07:56:04;3.57;;;3.27;;
8574;SDS011;4325;42.520;27.448;2023-08-06T07:58:31;3.40;;;3.00;;
8574;SDS011;4325;42.520;27.448;2023-08-06T08:00:58;4.40;;;3.50;;
8574;SDS011;4325;42.520;27.448;2023-08-06T08:03:25;4.80;;;3.27;;
8574;SDS011;4325;42.520;27.448;2023-08-06T08:05:54;5.43;;;3.60;;
8574;SDS011;4325;42.520;27.448;2023-08-06T08:08:23;4.53;;;3.90;;
8574;SDS011;4325;42.520;27.448;2023-08-06T08:10:52;4.23;;;3.77;;
8574;SDS011;4325;42.520;27.448;2023-08-06T08:13:20;4.37;;;3.23;;
8574;SDS011;4325;42.520;27.448;2023-08-06T08:15:47;6.63;;;3.13;;
8574;SDS011;4325;42.520;27.448;2023-08-06T08:18:14;4.43;;;3.80;;
8574;SDS011;4325;42.520;27.448;2023-08-06T08:20:41;3.40;;;3.10;;
8574;SDS011;4325;42.520;27.448;2023-08-06T08:23:08;3.57;;;3.27;;
8574;SDS011;4325;42.520;27.448;2023-08-06T08:25:35;3.90;;;3.10;;
8574;SDS011;4325;42.520;27.448;2023-08-06T08:28:03;4.23;;;3.00;;
8574;SDS011;4325;42.520;27.448;2023-08-06T08:30:30;3.23;;;2.93;;
8574;SDS011;4325;42.520;27.448;2023-08-06T08:32:57;3.83;;;2.57;;
8574;SDS011;4325;42.520;27.448;2023-08-06T08:35:24;4.55;;;2.63;;
8574;SDS011;4325;42.520;27.448;2023-08-06T08:37:51;5.05;;;2.85;;
8574;SDS011;4325;42.520;27.448;2023-08-06T08:40:19;2.70;;;2.50;;
8574;SDS011;4325;42.520;27.448;2023-08-06T08:42:51;3.20;;;2.60;;
8574;SDS011;4325;42.520;27.448;2023-08-06T08:45:19;2.60;;;2.40;;
8574;SDS011;4325;42.520;27.448;2023-08-06T08:47:48;3.72;;;2.72;;
8574;SDS011;4325;42.520;27.448;2023-08-06T08:50:15;2.85;;;2.60;;
8574;SDS011;4325;42.520;27.448;2023-08-06T08:52:44;10.20;;;3.50;;
8574;SDS011;4325;42.520;27.448;2023-08-06T08:55:14;4.20;;;2.85;;
8574;SDS011;4325;42.520;27.448;2023-08-06T08:57:41;4.00;;;2.80;;
8574;SDS011;4325;42.520;27.448;2023-08-06T09:00:09;2.90;;;2.65;;
8574;SDS011;4325;42.520;27.448;2023-08-06T09:02:37;2.83;;;2.60;;
8574;SDS011;4325;42.520;27.448;2023-08-06T09:05:05;3.00;;;2.20;;
8574;SDS011;4325;42.520;27.448;2023-08-06T09:07:34;3.25;;;2.95;;
8574;SDS011;4325;42.520;27.448;2023-08-06T09:10:05;3.65;;;2.40;;
8574;SDS011;4325;42.520;27.448;2023-08-06T09:12:36;2.92;;;2.28;;
8574;SDS011;4325;42.520;27.448;2023-08-06T09:15:04;3.35;;;2.10;;
8574;SDS011;4325;42.520;27.448;2023-08-06T09:17:31;2.25;;;1.98;;
8574;SDS011;4325;42.520;27.448;2023-08-06T09:19:59;3.25;;;2.22;;
8574;SDS011;4325;42.520;27.448;2023-08-06T09:22:36;2.40;;;2.17;;
8574;SDS011;4325;42.520;27.448;2023-08-06T09:25:03;5.78;;;2.40;;
8574;SDS011;4325;42.520;27.448;2023-08-06T09:27:34;3.45;;;2.45;;
8574;SDS011;4325;42.520;27.448;2023-08-06T09:30:03;2.50;;;2.30;;
8574;SDS011;4325;42.520;27.448;2023-08-06T09:32:44;2.55;;;2.35;;
8574;SDS011;4325;42.520;27.448;2023-08-06T09:35:16;2.38;;;2.17;;
8574;SDS011;4325;42.520;27.448;2023-08-06T09:37:43;3.15;;;1.95;;
8574;SDS011;4325;42.520;27.448;2023-08-06T09:40:26;3.05;;;2.40;;
8574;SDS011;4325;42.520;27.448;2023-08-06T09:42:54;3.78;;;2.20;;
8574;SDS011;4325;42.520;27.448;2023-08-06T09:45:22;2.95;;;2.72;;
8574;SDS011;4325;42.520;27.448;2023-08-06T09:47:49;2.40;;;2.20;;
8574;SDS011;4325;42.520;27.448;2023-08-06T09:50:18;2.15;;;1.95;;
8574;SDS011;4325;42.520;27.448;2023-08-06T09:52:46;2.20;;;2.05;;
8574;SDS011;4325;42.520;27.448;2023-08-06T09:55:14;3.58;;;2.42;;
8574;SDS011;4325;42.520;27.448;2023-08-06T09:57:41;2.35;;;2.17;;
8574;SDS011;4325;42.520;27.448;2023-08-06T10:00:09;2.83;;;2.58;;
8574;SDS011;4325;42.520;27.448;2023-08-06T10:02:37;2.30;;;2.13;;
8574;SDS011;4325;42.520;27.448;2023-08-06T10:05:05;3.40;;;2.58;;
8574;SDS011;4325;42.520;27.448;2023-08-06T10:07:34;2.20;;;2.00;;
8574;SDS011;4325;42.520;27.448;2023-08-06T10:10:04;2.42;;;2.22;;
8574;SDS011;4325;42.520;27.448;2023-08-06T10:12:32;2.72;;;2.50;;
8574;SDS011;4325;42.520;27.448;2023-08-06T10:15:03;2.47;;;2.25;;
8574;SDS011;4325;42.520;27.448;2023-08-06T10:17:35;4.38;;;2.88;;
8574;SDS011;4325;42.520;27.448;2023-08-06T10:20:03;3.65;;;2.95;;
8574;SDS011;4325;42.520;27.448;2023-08-06T10:22:34;12.13;;;3.08;;
8574;SDS011;4325;42.520;27.448;2023-08-06T10:25:01;4.10;;;2.60;;
8574;SDS011;4325;42.520;27.448;2023-08-06T10:27:32;4.32;;;2.70;;
8574;SDS011;4325;42.520;27.448;2023-08-06T10:32:50;4.95;;;2.85;;
8574;SDS011;4325;42.520;27.448;2023-08-06T10:35:27;2.70;;;2.30;;
8574;SDS011;4325;42.520;27.448;2023-08-06T10:37:59;3.50;;;2.50;;
8574;SDS011;4325;42.520;27.448;2023-08-06T10:40:29;3.45;;;2.55;;
8574;SDS011;4325;42.520;27.448;2023-08-06T10:42:58;4.70;;;2.92;;
8574;SDS011;4325;42.520;27.448;2023-08-06T10:45:26;2.58;;;2.38;;
8574;SDS011;4325;42.520;27.448;2023-08-06T10:47:55;3.42;;;2.90;;
8574;SDS011;4325;42.520;27.448;2023-08-06T10:50:23;3.85;;;2.83;;
8574;SDS011;4325;42.520;27.448;2023-08-06T10:52:50;7.93;;;2.65;;
8574;SDS011;4325;42.520;27.448;2023-08-06T10:55:26;0.50;;;0.50;;
8574;SDS011;4325;42.520;27.448;2023-08-06T10:57:54;0.50;;;0.50;;
8574;SDS011;4325;42.520;27.448;2023-08-06T11:00:22;0.60;;;0.60;;
8574;SDS011;4325;42.520;27.448;2023-08-06T11:02:50;0.40;;;0.40;;
8574;SDS011;4325;42.520;27.448;2023-08-06T11:05:18;0.40;;;0.40;;
8574;SDS011;4325;42.520;27.448;2023-08-06T11:07:45;0.40;;;0.40;;
8574;SDS011;4325;42.520;27.448;2023-08-06T11:10:13;0.40;;;0.40;;
8574;SDS011;4325;42.520;27.448;2023-08-06T11:12:41;0.97;;;0.90;;
8574;SDS011;4325;42.520;27.448;2023-08-06T11:15:09;0.50;;;0.50;;
8574;SDS011;4325;42.520;27.448;2023-08-06T11:17:37;0.40;;;0.40;;
8574;SDS011;4325;42.520;27.448;2023-08-06T11:20:07;2.77;;;2.50;;
8574;SDS011;4325;42.520;27.448;2023-08-06T11:22:35;2.00;;;1.77;;
8574;SDS011;4325;42.520;27.448;2023-08-06T11:25:03;1.37;;;1.27;;
8574;SDS011;4325;42.520;27.448;2023-08-06T11:27:31;2.87;;;2.20;;
8574;SDS011;4325;42.520;27.448;2023-08-06T11:30:00;2.50;;;2.07;;
8574;SDS011;4325;42.520;27.448;2023-08-06T11:32:27;2.03;;;1.73;;
8574;SDS011;4325;42.520;27.448;2023-08-06T11:34:54;2.43;;;1.80;;
8574;SDS011;4325;42.520;27.448;2023-08-06T11:37:21;1.90;;;1.53;;
8574;SDS011;4325;42.520;27.448;2023-08-06T11:39:50;2.53;;;2.33;;
8574;SDS011;4325;42.520;27.448;2023-08-06T11:42:18;1.65;;;1.55;;
8574;SDS011;4325;42.520;27.448;2023-08-06T11:44:45;5.38;;;2.15;;
8574;SDS011;4325;42.520;27.448;2023-08-06T11:47:14;2.63;;;1.80;;
8574;SDS011;4325;42.520;27.448;2023-08-06T11:49:42;2.45;;;2.15;;
8574;SDS011;4325;42.520;27.448;2023-08-06T11:52:13;1.77;;;1.63;;
8574;SDS011;4325;42.520;27.448;2023-08-06T11:54:41;1.35;;;1.25;;
8574;SDS011;4325;42.520;27.448;2023-08-06T11:57:08;1.40;;;1.30;;
8574;SDS011;4325;42.520;27.448;2023-08-06T11:59:37;2.40;;;1.75;;
8574;SDS011;4325;42.520;27.448;2023-08-06T12:02:04;2.25;;;1.20;;
8574;SDS011;4325;42.520;27.448;2023-08-06T12:07:30;3.20;;;1.50;;
8574;SDS011;4325;42.520;27.448;2023-08-06T12:09:57;1.45;;;1.35;;
8574;SDS011;4325;42.520;27.448;2023-08-06T12:12:24;5.13;;;1.50;;
8574;SDS011;4325;42.520;27.448;2023-08-06T12:14:51;4.10;;;1.50;;
8574;SDS011;4325;42.520;27.448;2023-08-06T12:17:18;2.00;;;1.80;;
8574;SDS011;4325;42.520;27.448;2023-08-06T12:19:45;2.03;;;1.50;;
8574;SDS011;4325;42.520;27.448;2023-08-06T12:22:15;3.47;;;2.13;;
8574;SDS011;4325;42.520;27.448;2023-08-06T12:24:42;2.25;;;1.90;;
8574;SDS011;4325;42.520;27.448;2023-08-06T12:27:09;2.95;;;2.63;;
8574;SDS011;4325;42.520;27.448;2023-08-06T12:29:37;2.03;;;1.85;;
8574;SDS011;4325;42.520;27.448;2023-08-06T12:32:07;2.33;;;1.73;;
8574;SDS011;4325;42.520;27.448;2023-08-06T12:34:33;2.00;;;1.80;;
8574;SDS011;4325;42.520;27.448;2023-08-06T12:37:01;2.20;;;1.92;;
8574;SDS011;4325;42.520;27.448;2023-08-06T12:39:30;1.92;;;1.73;;
8574;SDS011;4325;42.520;27.448;2023-08-06T12:41:57;2.53;;;1.40;;
8574;SDS011;4325;42.520;27.448;2023-08-06T12:44:25;1.38;;;1.23;;
8574;SDS011;4325;42.520;27.448;2023-08-06T12:46:52;1.67;;;1.25;;
8574;SDS011;4325;42.520;27.448;2023-08-06T12:49:19;1.50;;;1.40;;
8574;SDS011;4325;42.520;27.448;2023-08-06T12:51:47;3.95;;;1.50;;
8574;SDS011;4325;42.520;27.448;2023-08-06T12:54:15;2.60;;;1.95;;
8574;SDS011;4325;42.520;27.448;2023-08-06T12:56:46;1.35;;;1.25;;
8574;SDS011;4325;42.520;27.448;2023-08-06T12:59:13;1.67;;;1.58;;
8574;SDS011;4325;42.520;27.448;2023-08-06T13:01:41;1.45;;;1.35;;
8574;SDS011;4325;42.520;27.448;2023-08-06T13:04:08;2.30;;;1.58;;
8574;SDS011;4325;42.520;27.448;2023-08-06T13:06:36;2.17;;;1.65;;
8574;SDS011;4325;42.520;27.448;2023-08-06T13:09:04;2.40;;;1.70;;
8574;SDS011;4325;42.520;27.448;2023-08-06T13:11:32;2.80;;;1.88;;
8574;SDS011;4325;42.520;27.448;2023-08-06T13:14:03;7.88;;;2.03;;
8574;SDS011;4325;42.520;27.448;2023-08-06T13:16:31;4.15;;;2.13;;
8574;SDS011;4325;42.520;27.448;2023-08-06T13:18:58;2.58;;;1.90;;
8574;SDS011;4325;42.520;27.448;2023-08-06T13:21:36;2.80;;;2.50;;
8574;SDS011;4325;42.520;27.448;2023-08-06T13:24:25;2.85;;;2.55;;
8574;SDS011;4325;42.520;27.448;2023-08-06T13:26:52;4.05;;;3.35;;
8574;SDS011;4325;42.520;27.448;2023-08-06T13:29:21;2.55;;;2.35;;
8574;SDS011;4325;42.520;27.448;2023-08-06T13:31:48;3.85;;;2.30;;
8574;SDS011;4325;42.520;27.448;2023-08-06T13:34:15;5.07;;;2.35;;
8574;SDS011;4325;42.520;27.448;2023-08-06T13:36:42;2.72;;;2.35;;
8574;SDS011;4325;42.520;27.448;2023-08-06T13:39:10;4.38;;;3.00;;
8574;SDS011;4325;42.520;27.448;2023-08-06T13:41:37;2.78;;;2.40;;
8574;SDS011;4325;42.520;27.448;2023-08-06T13:44:05;2.72;;;2.47;;
8574;SDS011;4325;42.520;27.448;2023-08-06T13:46:34;2.88;;;2.47;;
8574;SDS011;4325;42.520;27.448;2023-08-06T13:49:01;3.78;;;2.33;;
8574;SDS011;4325;42.520;27.448;2023-08-06T13:51:28;2.33;;;2.13;;
8574;SDS011;4325;42.520;27.448;2023-08-06T13:53:56;4.80;;;2.40;;
8574;SDS011;4325;42.520;27.448;2023-08-06T13:56:23;3.50;;;2.42;;
8574;SDS011;4325;42.520;27.448;2023-08-06T13:58:50;1.85;;;1.75;;
8574;SDS011;4325;42.520;27.448;2023-08-06T14:01:17;3.05;;;1.80;;
8574;SDS011;4325;42.520;27.448;2023-08-06T14:03:46;1.83;;;1.73;;
8574;SDS011;4325;42.520;27.448;2023-08-06T14:06:13;2.55;;;2.15;;
8574;SDS011;4325;42.520;27.448;2023-08-06T14:08:40;2.90;;;1.98;;
8574;SDS011;4325;42.520;27.448;2023-08-06T14:11:07;4.40;;;2.17;;
8574;SDS011;4325;42.520;27.448;2023-08-06T14:13:35;1.88;;;1.77;;
8574;SDS011;4325;42.520;27.448;2023-08-06T14:16:02;2.20;;;2.00;;
8574;SDS011;4325;42.520;27.448;2023-08-06T14:18:29;2.10;;;1.90;;
8574;SDS011;4325;42.520;27.448;2023-08-06T14:20:58;2.22;;;2.03;;
8574;SDS011;4325;42.520;27.448;2023-08-06T14:23:25;2.00;;;1.80;;
8574;SDS011;4325;42.520;27.448;2023-08-06T14:25:51;2.10;;;2.00;;
8574;SDS011;4325;42.520;27.448;2023-08-06T14:28:18;2.50;;;2.30;;
8574;SDS011;4325;42.520;27.448;2023-08-06T14:30:47;3.88;;;2.88;;
8574;SDS011;4325;42.520;27.448;2023-08-06T14:33:14;2.17;;;1.98;;
8574;SDS011;4325;42.520;27.448;2023-08-06T14:35:40;2.13;;;1.90;;
8574;SDS011;4325;42.520;27.448;2023-08-06T14:38:09;2.75;;;2.25;;
8574;SDS011;4325;42.520;27.448;2023-08-06T14:40:36;2.42;;;2.20;;
8574;SDS011;4325;42.520;27.448;2023-08-06T14:43:05;5.60;;;2.40;;
8574;SDS011;4325;42.520;27.448;2023-08-06T14:45:32;2.63;;;2.40;;
8574;SDS011;4325;42.520;27.448;2023-08-06T14:47:59;4.47;;;2.90;;
8574;SDS011;4325;42.520;27.448;2023-08-06T14:50:25;3.47;;;3.13;;
8574;SDS011;4325;42.520;27.448;2023-08-06T14:52:52;2.90;;;2.60;;
8574;SDS011;4325;42.520;27.448;2023-08-06T14:55:27;3.42;;;2.83;;
8574;SDS011;4325;42.520;27.448;2023-08-06T14:57:54;4.67;;;3.60;;
8574;SDS011;4325;42.520;27.448;2023-08-06T15:00:21;3.55;;;3.08;;
8574;SDS011;4325;42.520;27.448;2023-08-06T15:02:55;3.07;;;2.87;;
8574;SDS011;4325;42.520;27.448;2023-08-06T15:05:22;3.00;;;2.77;;
8574;SDS011;4325;42.520;27.448;2023-08-06T15:07:50;3.00;;;2.67;;
8574;SDS011;4325;42.520;27.448;2023-08-06T15:10:18;3.83;;;3.33;;